메인 페이지
METAR-TAF:

METAR-TAF

공항 :

로건 국제공항

보스턴, 매사추세츠, 미국

위도: 42-21-38N, 경도: 071-00-38W, 고도: 6m

현재 날씨관측

예보는 30분 전, 03:54시(UTC)에 발표되었습니다.
서북서20kt, 순간 최대 풍속 29kt
온도 -2°C
습도 39%
기압 1005 hPa
시정: 16.1km
맑음

METAR: KBOS 050354Z 30020G29KT 10SM CLR M02/M14 A2967 RMK AO2 PK WND 29031/0336 SLP047 T10171144

시각: 23:24 (04:24 UTC)

예보

예보는 1 시간 16분 전, 03:08시(UTC)에 발표되었습니다.
예보 대상 시간: 05일 03시부터 06일 06시까지 (UTC)
북서18kt, 순간 최대 풍속 25kt
시정: 10km
고도 25000ft 상공 구름 보통
05일 0800시부터 (UTC)
서북서16kt, 순간 최대 풍속 25kt
시정: 10km
고도 10000ft 상공 구름 많음
05일 1400시부터 (UTC)
서북서17kt, 순간 최대 풍속 24kt
시정: 10km
고도 3500ft 상공 구름 보통
06일 0500시부터 (UTC)
서북서9kt
시정: 10km
고도 7000ft 상공 구름 보통

TAF: KBOS 050308Z 0503/0606 31018G25KT P6SM SCT250 FM050800 30016G25KT P6SM BKN100 FM051400 29017G24KT P6SM SCT035 FM060500 29009KT P6SM SCT070

4,000개 이상의 공항 관측 자료 및 예보 (METAR 및 TAF 보고).

지도상에서 검색 가능한 기상관측소가 노란 점과 빨간 점으로 표시되어 있습니다.

기상관측소 명을 보려면 표시 위로 마우스를 이동하세요.

날씨 관측과 예보를 보려면 클릭하세요.

지도 변경 : 확대하려면 엑스 표시가 있는 녹색 버튼, 축소하려면 빼기 표시가 있는 녹색 버튼, 다음 페이지의 지도를 보려면 녹색 화살표를 클릭하세요.


METAR-TAF: